HISTORICAL SENSOR DATA

Sensor Data Report

DB LIVE
CURRENT TIME--:--:--
DEVICE NETWORK Gateway Status
13 ESP · realtime ~1s · history 60s
Weather WS-MOD-01
ONLINE
Actuator ACT-MOD-01
OFFLINE
Mainboard L3 MB-L3-01
ONLINE
Mainboard L5 MB-L5-01
ONLINE
Remote AC AC-REMOTE-01
ONLINE
PZEM L3-01 PWR-L3-01
OFFLINE
PZEM L3-02 PWR-L3-02
OFFLINE
PZEM L3-03 PWR-L3-03
OFFLINE
PZEM L3-04 PWR-L3-04
OFFLINE
PZEM L5-01 PWR-L5-01
ONLINE
PZEM L5-02 PWR-L5-02
ONLINE
PZEM L5-03 PWR-L5-03
OFFLINE
PZEM L5-04 PWR-L5-04
OFFLINE
REPORT FILTER

Periode & Sensor

DATABASE HISTORY
RESET
QUICK RANGE Hari ini 7 hari 30 hari
PERIODE08 Aug 2026sampai 06 Sep 2026
TOTAL DATA67,817sensor readings
MINIMUM-0.50sesuai filter
AVERAGE84.86sesuai filter
MAXIMUM32,564.20sesuai filter
REPORT RESULT

Data Sensor

08/08/2026 — 06/09/2026 EXPORT CSV
NOTANGGALWAKTUDEVICECHANNELSENSORVALUEUNIT
1 06/09/2026 23:59:00 MB-L3-01Mainboard Lantai 3 L3-AI-04 Analog Input 4 3.12 V
2 06/09/2026 23:59:00 MB-L3-01Mainboard Lantai 3 L3-LUX-05 Illuminance / LUX 5 0.30 lux
3 06/09/2026 23:59:00 MB-L5-01Mainboard Lantai 5 L5-RAD-02 Radiation 2 1.00 W/m²
4 06/09/2026 23:59:00 MB-L5-01Mainboard Lantai 5 L5-HFT-01 Heat Flow Temperature 1 23.80 °C
5 06/09/2026 23:59:00 MB-L5-01Mainboard Lantai 5 L5-LUX-04 Illuminance / LUX 4 0.10 lux
6 06/09/2026 23:59:00 WS-MOD-01Weather Station Module WS-RH Kelembapan Udara 77.80 %RH
7 06/09/2026 23:59:00 MB-L5-01Mainboard Lantai 5 L5-RAD-01 Radiation 1 1.00 W/m²
8 06/09/2026 23:59:00 MB-L5-01Mainboard Lantai 5 L5-AI-01 Analog Input 1 3.05 V
9 06/09/2026 23:59:00 MB-L5-01Mainboard Lantai 5 L5-LUX-02 Illuminance / LUX 2 0.10 lux
10 06/09/2026 23:59:00 PWR-L5-01Power Meter L5 PZEM 01 PZEM-L5-01-FREQ PZEM L5-01 Frequency 49.90 Hz
11 06/09/2026 23:59:00 PWR-L5-02Power Meter L5 PZEM 02 PZEM-L5-02-ENERGY PZEM L5-02 Energy 0.04 kWh
12 06/09/2026 23:59:00 MB-L3-01Mainboard Lantai 3 L3-LUX-01 Illuminance / LUX 1 0.20 lux
13 06/09/2026 23:59:00 MB-L5-01Mainboard Lantai 5 L5-LUX-06 Illuminance / LUX 6 0.10 lux
14 06/09/2026 23:59:00 MB-L3-01Mainboard Lantai 3 L3-AI-02 Analog Input 2 3.12 V
15 06/09/2026 23:59:00 MB-L5-01Mainboard Lantai 5 L5-AI-04 Analog Input 4 3.05 V
16 06/09/2026 23:59:00 MB-L3-01Mainboard Lantai 3 L3-SHT-01-RH SHT20 1 Humidity 45.70 %RH
17 06/09/2026 23:59:00 MB-L3-01Mainboard Lantai 3 L3-LUX-03 Illuminance / LUX 3 0.20 lux
18 06/09/2026 23:59:00 PWR-L5-01Power Meter L5 PZEM 01 PZEM-L5-01-PF PZEM L5-01 Power Factor 0.38
19 06/09/2026 23:59:00 MB-L3-01Mainboard Lantai 3 L3-SHT-03-T SHT20 3 Temperature 28.90 °C
20 06/09/2026 23:59:00 WS-MOD-01Weather Station Module WS-TEMP Suhu Udara 19.60 °C
21 06/09/2026 23:59:00 AC-REMOTE-01Remote AC AC-FAN AC Fan Speed 0.00 code
22 06/09/2026 23:59:00 MB-L5-01Mainboard Lantai 5 L5-BGT-03 Black Globe Temperature 3 26.40 °C
23 06/09/2026 23:59:00 MB-L5-01Mainboard Lantai 5 L5-ST-01 Surface Temperature 1 24.00 °C
24 06/09/2026 23:59:00 MB-L5-01Mainboard Lantai 5 L5-LUX-01 Illuminance / LUX 1 0.00 lux
25 06/09/2026 23:59:00 WS-MOD-01Weather Station Module WS-DIR Arah Angin 70.50 °
26 06/09/2026 23:59:00 MB-L3-01Mainboard Lantai 3 L3-RAD-02 Radiation 2 0.00 W/m²
27 06/09/2026 23:59:00 MB-L3-01Mainboard Lantai 3 L3-AI-05 Analog Input 5 3.12 V
28 06/09/2026 23:59:00 MB-L5-01Mainboard Lantai 5 L5-HFT-02 Heat Flow Temperature 2 23.00 °C
29 06/09/2026 23:59:00 MB-L3-01Mainboard Lantai 3 L3-LUX-02 Illuminance / LUX 2 0.20 lux
30 06/09/2026 23:59:00 PWR-L5-02Power Meter L5 PZEM 02 PZEM-L5-02-POWER PZEM L5-02 Active Power 0.00 W
31 06/09/2026 23:59:00 MB-L5-01Mainboard Lantai 5 L5-AI-02 Analog Input 2 3.05 V
32 06/09/2026 23:59:00 PWR-L5-01Power Meter L5 PZEM 01 PZEM-L5-01-VOLT PZEM L5-01 Voltage 224.70 V
33 06/09/2026 23:59:00 AC-REMOTE-01Remote AC AC-MODE AC Operating Mode 1.00 code
34 06/09/2026 23:59:00 MB-L3-01Mainboard Lantai 3 L3-SHT-01-T SHT20 1 Temperature 28.60 °C
35 06/09/2026 23:59:00 MB-L3-01Mainboard Lantai 3 L3-SHT-02-T SHT20 2 Temperature 28.90 °C
36 06/09/2026 23:59:00 PWR-L5-02Power Meter L5 PZEM 02 PZEM-L5-02-PF PZEM L5-02 Power Factor 0.00
37 06/09/2026 23:59:00 MB-L5-01Mainboard Lantai 5 L5-BGT-01 Black Globe Temperature 1 26.80 °C
38 06/09/2026 23:59:00 MB-L5-01Mainboard Lantai 5 L5-AI-05 Analog Input 5 3.05 V
39 06/09/2026 23:59:00 MB-L3-01Mainboard Lantai 3 L3-AI-03 Analog Input 3 3.12 V
40 06/09/2026 23:59:00 WS-MOD-01Weather Station Module WS-WIND Kecepatan Angin 6.09 m/s
41 06/09/2026 23:59:00 PWR-L5-01Power Meter L5 PZEM 01 PZEM-L5-01-CURR PZEM L5-01 Current 0.12 A
42 06/09/2026 23:59:00 MB-L5-01Mainboard Lantai 5 L5-ST-02 Surface Temperature 2 23.20 °C
43 06/09/2026 23:59:00 MB-L5-01Mainboard Lantai 5 L5-SHT-01-RH SHT20 1 Humidity 45.90 %RH
44 06/09/2026 23:59:00 PWR-L5-02Power Meter L5 PZEM 02 PZEM-L5-02-CURR PZEM L5-02 Current 0.00 A
45 06/09/2026 23:59:00 MB-L3-01Mainboard Lantai 3 L3-LUX-06 Illuminance / LUX 6 0.30 lux
46 06/09/2026 23:59:00 WS-MOD-01Weather Station Module WS-PRES Tekanan Udara 912.00 hPa
47 06/09/2026 23:59:00 MB-L5-01Mainboard Lantai 5 L5-SHT-02-T SHT20 2 Temperature 29.10 °C
48 06/09/2026 23:59:00 MB-L3-01Mainboard Lantai 3 L3-LUX-04 Illuminance / LUX 4 0.10 lux
49 06/09/2026 23:59:00 AC-REMOTE-01Remote AC AC-SETPOINT AC Set Temperature 23.00 °C
50 06/09/2026 23:59:00 PWR-L5-01Power Meter L5 PZEM 01 PZEM-L5-01-POWER PZEM L5-01 Active Power 10.60 W
51 06/09/2026 23:59:00 MB-L3-01Mainboard Lantai 3 L3-AI-01 Analog Input 1 3.12 V
52 06/09/2026 23:59:00 MB-L5-01Mainboard Lantai 5 L5-SHT-03-RH SHT20 3 Humidity 45.60 %RH
53 06/09/2026 23:59:00 MB-L3-01Mainboard Lantai 3 L3-SHT-02-RH SHT20 2 Humidity 44.80 %RH
54 06/09/2026 23:59:00 MB-L5-01Mainboard Lantai 5 L5-SHT-01-T SHT20 1 Temperature 28.70 °C
55 06/09/2026 23:59:00 MB-L3-01Mainboard Lantai 3 L3-SHT-03-RH SHT20 3 Humidity 45.10 %RH
56 06/09/2026 23:59:00 MB-L5-01Mainboard Lantai 5 L5-LUX-03 Illuminance / LUX 3 0.10 lux
57 06/09/2026 23:59:00 MB-L5-01Mainboard Lantai 5 L5-SHT-03-T SHT20 3 Temperature 28.90 °C
58 06/09/2026 23:59:00 MB-L3-01Mainboard Lantai 3 L3-AI-06 Analog Input 6 3.12 V
59 06/09/2026 23:59:00 MB-L5-01Mainboard Lantai 5 L5-AI-03 Analog Input 3 3.05 V
60 06/09/2026 23:59:00 MB-L5-01Mainboard Lantai 5 L5-SHT-02-RH SHT20 2 Humidity 45.00 %RH
61 06/09/2026 23:59:00 PWR-L5-02Power Meter L5 PZEM 02 PZEM-L5-02-FREQ PZEM L5-02 Frequency 49.90 Hz
62 06/09/2026 23:59:00 MB-L3-01Mainboard Lantai 3 L3-RAD-01 Radiation 1 1.00 W/m²
63 06/09/2026 23:59:00 PWR-L5-01Power Meter L5 PZEM 01 PZEM-L5-01-ENERGY PZEM L5-01 Energy 0.06 kWh
64 06/09/2026 23:59:00 MB-L5-01Mainboard Lantai 5 L5-BGT-02 Black Globe Temperature 2 26.70 °C
65 06/09/2026 23:59:00 PWR-L5-02Power Meter L5 PZEM 02 PZEM-L5-02-VOLT PZEM L5-02 Voltage 224.60 V
66 06/09/2026 23:59:00 MB-L5-01Mainboard Lantai 5 L5-AI-06 Analog Input 6 3.05 V
67 06/09/2026 23:59:00 AC-REMOTE-01Remote AC AC-POWER AC Power State 1.00 state
68 06/09/2026 23:58:00 MB-L5-01Mainboard Lantai 5 L5-AI-04 Analog Input 4 3.05 V
69 06/09/2026 23:58:00 MB-L3-01Mainboard Lantai 3 L3-SHT-01-RH SHT20 1 Humidity 45.70 %RH
70 06/09/2026 23:58:00 MB-L3-01Mainboard Lantai 3 L3-LUX-03 Illuminance / LUX 3 0.20 lux
71 06/09/2026 23:58:00 PWR-L5-01Power Meter L5 PZEM 01 PZEM-L5-01-PF PZEM L5-01 Power Factor 0.38
72 06/09/2026 23:58:00 MB-L3-01Mainboard Lantai 3 L3-SHT-03-T SHT20 3 Temperature 28.90 °C
73 06/09/2026 23:58:00 WS-MOD-01Weather Station Module WS-TEMP Suhu Udara 19.60 °C
74 06/09/2026 23:58:00 AC-REMOTE-01Remote AC AC-FAN AC Fan Speed 0.00 code
75 06/09/2026 23:58:00 MB-L5-01Mainboard Lantai 5 L5-BGT-03 Black Globe Temperature 3 26.50 °C
76 06/09/2026 23:58:00 MB-L5-01Mainboard Lantai 5 L5-ST-01 Surface Temperature 1 24.00 °C
77 06/09/2026 23:58:00 MB-L5-01Mainboard Lantai 5 L5-LUX-01 Illuminance / LUX 1 0.00 lux
78 06/09/2026 23:58:00 WS-MOD-01Weather Station Module WS-DIR Arah Angin 72.20 °
79 06/09/2026 23:58:00 MB-L3-01Mainboard Lantai 3 L3-RAD-02 Radiation 2 0.00 W/m²
80 06/09/2026 23:58:00 MB-L3-01Mainboard Lantai 3 L3-AI-05 Analog Input 5 3.12 V
81 06/09/2026 23:58:00 MB-L5-01Mainboard Lantai 5 L5-HFT-02 Heat Flow Temperature 2 22.90 °C
82 06/09/2026 23:58:00 MB-L3-01Mainboard Lantai 3 L3-LUX-02 Illuminance / LUX 2 0.20 lux
83 06/09/2026 23:58:00 PWR-L5-02Power Meter L5 PZEM 02 PZEM-L5-02-POWER PZEM L5-02 Active Power 0.00 W
84 06/09/2026 23:58:00 MB-L5-01Mainboard Lantai 5 L5-AI-02 Analog Input 2 3.05 V
85 06/09/2026 23:58:00 PWR-L5-01Power Meter L5 PZEM 01 PZEM-L5-01-VOLT PZEM L5-01 Voltage 224.70 V
86 06/09/2026 23:58:00 AC-REMOTE-01Remote AC AC-MODE AC Operating Mode 1.00 code
87 06/09/2026 23:58:00 MB-L3-01Mainboard Lantai 3 L3-SHT-01-T SHT20 1 Temperature 28.70 °C
88 06/09/2026 23:58:00 MB-L3-01Mainboard Lantai 3 L3-SHT-02-T SHT20 2 Temperature 29.00 °C
89 06/09/2026 23:58:00 PWR-L5-02Power Meter L5 PZEM 02 PZEM-L5-02-PF PZEM L5-02 Power Factor 0.00
90 06/09/2026 23:58:00 MB-L5-01Mainboard Lantai 5 L5-BGT-01 Black Globe Temperature 1 26.70 °C
91 06/09/2026 23:58:00 MB-L5-01Mainboard Lantai 5 L5-AI-05 Analog Input 5 3.05 V
92 06/09/2026 23:58:00 MB-L3-01Mainboard Lantai 3 L3-AI-03 Analog Input 3 3.12 V
93 06/09/2026 23:58:00 WS-MOD-01Weather Station Module WS-WIND Kecepatan Angin 6.09 m/s
94 06/09/2026 23:58:00 PWR-L5-01Power Meter L5 PZEM 01 PZEM-L5-01-CURR PZEM L5-01 Current 0.12 A
95 06/09/2026 23:58:00 MB-L5-01Mainboard Lantai 5 L5-ST-02 Surface Temperature 2 23.30 °C
96 06/09/2026 23:58:00 MB-L5-01Mainboard Lantai 5 L5-SHT-01-RH SHT20 1 Humidity 45.90 %RH
97 06/09/2026 23:58:00 PWR-L5-02Power Meter L5 PZEM 02 PZEM-L5-02-CURR PZEM L5-02 Current 0.00 A
98 06/09/2026 23:58:00 MB-L3-01Mainboard Lantai 3 L3-LUX-06 Illuminance / LUX 6 0.30 lux
99 06/09/2026 23:58:00 WS-MOD-01Weather Station Module WS-PRES Tekanan Udara 912.00 hPa
100 06/09/2026 23:58:00 MB-L5-01Mainboard Lantai 5 L5-SHT-02-T SHT20 2 Temperature 29.10 °C
Menampilkan maksimal 100 data per halaman
PAGE 1 NEXT →